createdAt,value
2023-05-16T00:00:40.465Z,6.6
2023-05-16T00:04:40.833Z,5.85
2023-05-16T00:08:40.496Z,6.2
2023-05-16T00:12:40.704Z,6.78
2023-05-16T00:16:41.324Z,6.18
2023-05-16T00:20:40.764Z,6.43
2023-05-16T00:24:40.546Z,5.65
2023-05-16T00:28:40.638Z,6.5
2023-05-16T00:32:40.799Z,6.78
2023-05-16T00:36:40.504Z,6.15
2023-05-16T00:40:40.462Z,6.72
2023-05-16T00:44:40.399Z,6.87
2023-05-16T00:48:39.918Z,6.97
2023-05-16T00:52:40.040Z,7.18
2023-05-16T00:56:40.534Z,7.55
2023-05-16T01:00:40.586Z,7.3
2023-05-16T01:04:40.628Z,7.93
2023-05-16T01:08:39.642Z,9.3
2023-05-16T01:12:40.564Z,7.9
2023-05-16T01:16:40.757Z,9.05
2023-05-16T01:20:40.391Z,9.18
2023-05-16T01:24:39.355Z,9.18
2023-05-16T01:28:39.746Z,9.23
2023-05-16T01:32:40.809Z,9.3
2023-05-16T01:36:40.509Z,9.02
2023-05-16T01:40:40.559Z,9.43
2023-05-16T01:44:39.327Z,9.18
2023-05-16T01:48:40.402Z,8.6
2023-05-16T01:52:40.473Z,8.55
2023-05-16T01:56:40.435Z,7.82
2023-05-16T02:00:40.536Z,9
2023-05-16T02:04:40.659Z,7.93
2023-05-16T02:08:40.411Z,7.72
2023-05-16T02:12:40.509Z,7.62
2023-05-16T02:16:40.547Z,8.07
2023-05-16T02:20:40.592Z,7.2
2023-05-16T02:24:41.261Z,7.07
2023-05-16T02:28:39.868Z,7.78
2023-05-16T02:32:40.469Z,7.28
2023-05-16T02:36:40.550Z,7.65
2023-05-16T02:40:40.881Z,7.55
2023-05-16T02:44:40.436Z,9.68
2023-05-16T02:48:39.576Z,8.3
2023-05-16T02:52:41.297Z,8.45
2023-05-16T02:56:40.866Z,8.85
2023-05-16T03:00:40.378Z,9.85
2023-05-16T03:04:40.110Z,9.5
2023-05-16T03:08:40.941Z,9.6
2023-05-16T03:12:40.220Z,9.9
2023-05-16T03:16:40.598Z,9.6
2023-05-16T03:20:40.447Z,11.5
2023-05-16T03:24:40.576Z,11.6
2023-05-16T03:28:40.485Z,10.6
2023-05-16T03:32:40.573Z,11.93
2023-05-16T03:36:40.570Z,10.95
2023-05-16T03:40:40.860Z,10.1
2023-05-16T03:44:40.235Z,11.12
2023-05-16T03:48:40.521Z,12.95
2023-05-16T03:52:39.935Z,11.57
2023-05-16T03:56:39.980Z,12.05
2023-05-16T04:00:40.481Z,12.65
2023-05-16T04:04:39.563Z,12.6
2023-05-16T04:08:40.501Z,13.18
2023-05-16T04:12:40.105Z,13.25
2023-05-16T04:16:39.276Z,10.07
2023-05-16T04:20:39.234Z,13.98
2023-05-16T04:24:40.564Z,13.25
2023-05-16T04:28:40.004Z,14.68
2023-05-16T04:32:40.551Z,16.5
2023-05-16T04:36:40.506Z,15.1
2023-05-16T04:40:40.827Z,15.38
2023-05-16T04:44:39.414Z,12.57
2023-05-16T04:48:40.589Z,16.45
2023-05-16T04:52:40.168Z,11.82
2023-05-16T04:56:41.120Z,16.67
2023-05-16T05:00:41.214Z,15.82
2023-05-16T05:04:39.768Z,14.4
2023-05-16T05:08:39.689Z,13.6
2023-05-16T05:12:40.045Z,15.7
2023-05-16T05:16:40.614Z,15.15
2023-05-16T05:20:41.221Z,14
2023-05-16T05:24:40.374Z,14.9
2023-05-16T05:28:43.679Z,13.85
2023-05-16T05:32:40.535Z,14.25
2023-05-16T05:36:40.408Z,14.68
2023-05-16T05:40:41.166Z,14.13
2023-05-16T05:44:40.631Z,14.63
2023-05-16T05:48:40.082Z,14.98
2023-05-16T05:52:41.110Z,13.6
2023-05-16T05:56:40.889Z,14.9
2023-05-16T06:00:40.245Z,14.65
2023-05-16T06:04:41.202Z,14.8
2023-05-16T06:08:39.880Z,15.8
2023-05-16T06:12:41.302Z,15.73
2023-05-16T06:16:40.783Z,14.55
2023-05-16T06:20:40.777Z,15.77
2023-05-16T06:24:39.528Z,14.23
2023-05-16T06:28:40.929Z,14.85
2023-05-16T06:32:40.349Z,11.48
2023-05-16T06:36:40.598Z,16.2
2023-05-16T06:40:39.449Z,11.52
2023-05-16T06:44:40.852Z,13.38
2023-05-16T06:48:40.493Z,14.82
2023-05-16T06:52:39.883Z,12.27
2023-05-16T06:56:40.407Z,15.35
2023-05-16T07:00:40.605Z,11.18
2023-05-16T07:04:39.720Z,12.37
2023-05-16T07:08:39.752Z,12.52
2023-05-16T07:12:40.016Z,12.77
2023-05-16T07:16:40.549Z,10.85
2023-05-16T07:20:40.823Z,12.55
2023-05-16T07:24:40.414Z,11.8
2023-05-16T07:28:39.732Z,12.25
2023-05-16T07:32:40.382Z,11.77
2023-05-16T07:36:41.211Z,11.25
2023-05-16T07:40:40.159Z,10.3
2023-05-16T07:44:41.213Z,11.3
2023-05-16T07:48:39.832Z,11.75
2023-05-16T07:52:40.650Z,11.4
2023-05-16T07:56:40.396Z,11.27
2023-05-16T08:00:41.084Z,12.2
2023-05-16T08:04:40.790Z,11.9
2023-05-16T08:08:39.996Z,11.9
2023-05-16T08:12:40.704Z,10.63
2023-05-16T08:16:40.704Z,12.07
2023-05-16T08:20:40.620Z,8.63
2023-05-16T08:24:39.443Z,7.2
2023-05-16T08:28:39.590Z,8.82
2023-05-16T08:32:40.476Z,10.18
2023-05-16T08:36:39.713Z,9.73
2023-05-16T08:40:40.556Z,8.35
2023-05-16T08:44:39.817Z,8.48
2023-05-16T08:48:39.873Z,9.52
2023-05-16T08:52:40.606Z,6.95
2023-05-16T08:56:40.667Z,8.9
2023-05-16T09:00:40.563Z,9
2023-05-16T09:04:40.624Z,9.07
2023-05-16T09:08:40.309Z,6.87
2023-05-16T09:12:40.070Z,7.72
2023-05-16T09:16:40.561Z,7.4
2023-05-16T09:20:40.704Z,7.25
2023-05-16T09:24:39.531Z,6.9
2023-05-16T09:28:39.590Z,6.32
2023-05-16T09:32:40.713Z,7.3
2023-05-16T09:36:42.906Z,7.18
2023-05-16T09:40:40.424Z,6.28
2023-05-16T09:44:39.506Z,7.65
2023-05-16T09:48:39.770Z,6.37
2023-05-16T09:52:41.126Z,6.55
2023-05-16T09:56:40.275Z,7.43
2023-05-16T10:00:40.437Z,7.78
2023-05-16T10:04:41.008Z,7.35
2023-05-16T10:08:39.724Z,6.55
2023-05-16T10:12:40.679Z,5.97
2023-05-16T10:16:40.585Z,7.47
2023-05-16T10:20:41.208Z,7.55
2023-05-16T10:24:39.327Z,7.12
2023-05-16T10:28:40.752Z,6.43
2023-05-16T10:32:42.538Z,6.6
2023-05-16T10:36:40.539Z,6.78
2023-05-16T10:40:40.396Z,5.5
2023-05-16T10:44:44.305Z,6.18
2023-05-16T10:48:41.036Z,5.85
2023-05-16T10:52:40.454Z,5.93
2023-05-16T10:56:40.539Z,6.12
2023-05-16T11:00:40.129Z,6.65
2023-05-16T11:04:39.628Z,6.4
2023-05-16T11:08:40.662Z,6.57
2023-05-16T11:12:40.046Z,5.5
2023-05-16T11:16:40.539Z,5.7
2023-05-16T11:20:39.512Z,5.87
2023-05-16T11:24:40.334Z,5.85
2023-05-16T11:28:39.712Z,6.6
2023-05-16T11:32:40.218Z,6.47
2023-05-16T11:36:40.270Z,7.85
2023-05-16T11:40:40.318Z,7.03
2023-05-16T11:44:39.343Z,5.95
2023-05-16T11:48:39.812Z,5.7
2023-05-16T11:52:40.553Z,5.53
2023-05-16T11:56:40.486Z,5.68
2023-05-16T12:00:40.746Z,5.6
2023-05-16T12:04:39.905Z,4.3
2023-05-16T12:08:40.493Z,4.72
2023-05-16T12:12:40.074Z,4.78
2023-05-16T12:16:40.553Z,5
2023-05-16T12:20:40.908Z,4.68
2023-05-16T12:24:40.592Z,5.25
2023-05-16T12:28:40.813Z,4.57
2023-05-16T12:32:40.489Z,3.45
2023-05-16T12:36:40.484Z,4.75
2023-05-16T12:40:41.254Z,4.65
2023-05-16T12:44:39.320Z,5.18
2023-05-16T12:48:39.847Z,4.97
2023-05-16T12:52:40.734Z,3.7
2023-05-16T12:56:40.449Z,3.67
2023-05-16T13:00:41.010Z,3.75
2023-05-16T13:04:40.422Z,3.35
2023-05-16T13:08:40.679Z,4.03
2023-05-16T13:12:40.473Z,2.8
2023-05-16T13:16:41.246Z,3.85
2023-05-16T13:20:40.500Z,4.07
2023-05-16T13:24:40.293Z,4.05
2023-05-16T13:28:40.437Z,3.6
2023-05-16T13:32:41.244Z,3.87
2023-05-16T13:36:53.085Z,4.28
2023-05-16T13:40:41.488Z,3.85
2023-05-16T13:44:40.138Z,3.37
2023-05-16T13:48:40.873Z,3.12
2023-05-16T13:52:40.735Z,3.4
2023-05-16T13:56:40.394Z,2.97
2023-05-16T14:00:45.821Z,3.25
2023-05-16T14:04:40.286Z,3.12
2023-05-16T14:08:40.522Z,2.9
2023-05-16T14:12:40.590Z,2.37
2023-05-16T14:16:40.344Z,2.6
2023-05-16T14:20:40.338Z,3.2
2023-05-16T14:24:40.897Z,3.53
2023-05-16T14:28:40.622Z,3.08
2023-05-16T14:32:40.445Z,2.87
2023-05-16T14:36:40.465Z,3.25
2023-05-16T14:40:40.503Z,3.17
2023-05-16T14:44:40.223Z,3.08
2023-05-16T14:48:41.073Z,2.72
2023-05-16T14:52:40.362Z,3.2
2023-05-16T14:56:40.757Z,2.5
2023-05-16T15:00:40.378Z,2.22
2023-05-16T15:04:40.433Z,2.62
2023-05-16T15:08:40.391Z,2.25
2023-05-16T15:12:40.449Z,2.7
2023-05-16T15:16:40.629Z,2.58
2023-05-16T15:20:40.779Z,3.1
2023-05-16T15:24:40.408Z,2.67
2023-05-16T15:28:40.358Z,2.53
2023-05-16T15:32:40.682Z,2.53
2023-05-16T15:36:40.498Z,2.17
2023-05-16T15:40:40.953Z,2.45
2023-05-16T15:44:40.510Z,2.4
2023-05-16T15:48:40.522Z,2.35
2023-05-16T15:52:40.423Z,2.42
2023-05-16T15:56:40.596Z,2.58
2023-05-16T16:00:40.663Z,2.1
2023-05-16T16:04:40.658Z,2.08
2023-05-16T16:08:40.706Z,2.7
2023-05-16T16:12:40.198Z,2.22
2023-05-16T16:16:40.876Z,1.92
2023-05-16T16:20:40.482Z,2.83
2023-05-16T16:24:40.475Z,2.47
2023-05-16T16:28:40.520Z,1.92
2023-05-16T16:32:40.573Z,2
2023-05-16T16:36:40.591Z,1.8
2023-05-16T16:40:40.517Z,2.17
2023-05-16T16:44:40.432Z,1.9
2023-05-16T16:48:40.491Z,3.05
2023-05-16T16:52:40.596Z,2.12
2023-05-16T16:56:40.581Z,2
2023-05-16T17:00:40.824Z,1.83
2023-05-16T17:04:40.525Z,2.3
2023-05-16T17:08:40.600Z,1.98
2023-05-16T17:12:40.689Z,3.12
2023-05-16T17:16:40.659Z,1.83
2023-05-16T17:20:40.561Z,1.83
2023-05-16T17:24:40.147Z,2.2
2023-05-16T17:28:40.232Z,2.15
2023-05-16T17:32:40.498Z,1.9
2023-05-16T17:36:40.558Z,1.83
2023-05-16T17:40:40.518Z,2.62
2023-05-16T17:44:40.210Z,2.22
2023-05-16T17:48:40.398Z,2.2
2023-05-16T17:52:40.774Z,1.8
2023-05-16T17:56:40.454Z,2.1
2023-05-16T18:00:40.503Z,2
2023-05-16T18:04:40.892Z,1.5
2023-05-16T18:08:40.510Z,2
2023-05-16T18:12:40.783Z,2
2023-05-16T18:16:40.242Z,2.1
2023-05-16T18:20:40.330Z,2.2
2023-05-16T18:24:40.558Z,2.25
2023-05-16T18:28:40.638Z,2.12
2023-05-16T18:32:41.005Z,2.37
2023-05-16T18:36:40.424Z,1.9
2023-05-16T18:40:40.596Z,1.92
2023-05-16T18:44:40.392Z,2.4
2023-05-16T18:48:40.671Z,2.5
2023-05-16T18:52:40.598Z,2.58
2023-05-16T18:56:40.501Z,2.47
2023-05-16T19:00:40.743Z,3.03
2023-05-16T19:04:40.763Z,4.22
2023-05-16T19:08:47.496Z,3.87
2023-05-16T19:12:40.495Z,3.12
2023-05-16T19:16:40.317Z,3.8
2023-05-16T19:20:40.534Z,3.42
2023-05-16T19:24:40.451Z,4.05
2023-05-16T19:28:40.671Z,3.53
2023-05-16T19:32:41.248Z,3.22
2023-05-16T19:36:40.672Z,3.35
2023-05-16T19:40:40.592Z,3.42
2023-05-16T19:44:40.489Z,3.78
2023-05-16T19:48:40.585Z,3.12
2023-05-16T19:52:40.382Z,4.37
2023-05-16T19:56:40.597Z,3.72
2023-05-16T20:00:40.607Z,3.35
2023-05-16T20:04:40.756Z,3.35
2023-05-16T20:08:40.420Z,3.4
2023-05-16T20:12:40.506Z,3.4
2023-05-16T20:16:40.489Z,3.47
2023-05-16T20:20:40.720Z,3.85
2023-05-16T20:24:40.452Z,4.05
2023-05-16T20:28:40.473Z,3.1
2023-05-16T20:32:40.387Z,3
2023-05-16T20:36:40.425Z,3.15
2023-05-16T20:40:40.552Z,3.1
2023-05-16T20:44:40.468Z,3.22
2023-05-16T20:48:40.576Z,3.92
2023-05-16T20:52:41.097Z,1.92
2023-05-16T20:56:40.586Z,2.17
2023-05-16T21:00:40.453Z,2
2023-05-16T21:04:40.354Z,1.77
2023-05-16T21:08:41.245Z,2.3
2023-05-16T21:12:40.468Z,2.03
2023-05-16T21:16:40.923Z,1.5
2023-05-16T21:20:40.690Z,1.6
2023-05-16T21:24:40.970Z,1.52
2023-05-16T21:28:42.790Z,1.17
2023-05-16T21:32:40.516Z,1.42
2023-05-16T21:36:40.430Z,0.9
2023-05-16T21:40:40.406Z,1
2023-05-16T21:44:40.560Z,0.8
2023-05-16T21:48:41.015Z,1.02
2023-05-16T21:52:40.408Z,0.98
2023-05-16T21:56:40.272Z,1.33
2023-05-16T22:00:40.314Z,1.87
2023-05-16T22:04:40.727Z,1.58
2023-05-16T22:08:40.491Z,0.85
2023-05-16T22:12:40.564Z,1
2023-05-16T22:16:40.485Z,1.35
2023-05-16T22:20:40.779Z,1.27
2023-05-16T22:24:40.429Z,1.1
2023-05-16T22:28:40.466Z,0.9
2023-05-16T22:32:41.297Z,1.17
2023-05-16T22:36:40.573Z,0.8
2023-05-16T22:40:40.676Z,0.7
2023-05-16T22:44:40.384Z,1.27
2023-05-16T22:48:40.478Z,0.88
2023-05-16T22:52:40.452Z,0.88
2023-05-16T22:56:40.263Z,1.9
2023-05-16T23:00:40.516Z,0.93
2023-05-16T23:04:40.684Z,0.7
2023-05-16T23:08:40.461Z,1
2023-05-16T23:12:40.598Z,0.93
2023-05-16T23:16:40.456Z,0.85
2023-05-16T23:20:40.601Z,1.45
2023-05-16T23:24:40.561Z,0.9
2023-05-16T23:28:40.634Z,0.77
2023-05-16T23:32:40.457Z,0.9
2023-05-16T23:36:40.404Z,1.48
2023-05-16T23:40:40.513Z,0.8
2023-05-16T23:44:39.623Z,0.82
2023-05-16T23:48:40.637Z,1.12
2023-05-16T23:52:40.442Z,1.08
2023-05-16T23:56:40.536Z,1
